Time;durP1;ratioP1;P1;durP2;ratioP2;P2;SDS_P1;SDS_P2;PMS_P1;PMS_P2;Temp;Humidity;BMP_temperature;BMP_pressure;BME280_temperature;BME280_humidity;BME280_pressure;Samples;Min_cycle;Max_cycle;Signal;HPM_P1;HPM_P2
2021/06/21 00:00:43;;;;;;;13.02;6.15;;;;;;;;;;1896188;67;20085;-76
2021/06/21 00:03:09;;;;;;;15.77;5.43;;;;;;;;;;1901293;67;20089;-76
2021/06/21 00:05:36;;;;;;;15.98;5.88;;;;;;;;;;1900335;67;20085;-76
2021/06/21 00:08:02;;;;;;;12.50;5.53;;;;;;;;;;1897688;67;20527;-77
2021/06/21 00:10:27;;;;;;;14.50;5.00;;;;;;;;;;1897463;67;20558;-76
2021/06/21 00:12:53;;;;;;;15.65;4.75;;;;;;;;;;1900956;67;20151;-76
2021/06/21 00:15:23;;;;;;;14.70;5.43;;;;;;;;;;1898990;67;20154;-76
2021/06/21 00:17:49;;;;;;;10.68;4.82;;;;;;;;;;1901560;67;20085;-76
2021/06/21 00:20:17;;;;;;;10.65;4.55;;;;;;;;;;1898302;67;20102;-77
2021/06/21 00:22:43;;;;;;;11.50;4.32;;;;;;;;;;1898272;67;20973;-77
2021/06/21 00:25:10;;;;;;;8.32;4.57;;;;;;;;;;1901284;67;20534;-78
2021/06/21 00:27:35;;;;;;;14.82;5.15;;;;;;;;;;1904163;67;20132;-77
2021/06/21 00:30:04;;;;;;;10.40;4.63;;;;;;;;;;1899161;67;20103;-78
2021/06/21 00:32:30;;;;;;;8.38;4.35;;;;;;;;;;1898816;67;20100;-79
2021/06/21 00:34:56;;;;;;;10.60;4.32;;;;;;;;;;1903180;67;20088;-77
2021/06/21 00:37:22;;;;;;;12.23;4.10;;;;;;;;;;1900677;67;20104;-78
2021/06/21 00:39:48;;;;;;;8.25;3.50;;;;;;;;;;1900132;67;20096;-78
2021/06/21 00:42:13;;;;;;;11.48;3.58;;;;;;;;;;1898947;67;20104;-77
2021/06/21 00:44:39;;;;;;;11.18;3.80;;;;;;;;;;1900183;67;20111;-77
2021/06/21 00:47:05;;;;;;;15.27;4.10;;;;;;;;;;1901131;67;20134;-78
2021/06/21 00:49:30;;;;;;;10.63;3.75;;;;;;;;;;1903957;67;20108;-77
2021/06/21 00:51:57;;;;;;;8.20;3.25;;;;;;;;;;1899427;67;20154;-77
2021/06/21 00:54:23;;;;;;;12.02;3.60;;;;;;;;;;1898932;67;20108;-79
2021/06/21 00:56:49;;;;;;;13.50;3.58;;;;;;;;;;1903104;67;20458;-78
2021/06/21 00:59:16;;;;;;;11.52;4.07;;;;;;;;;;1901722;67;20092;-77
2021/06/21 01:01:42;;;;;;;12.20;3.53;;;;;;;;;;1898504;67;20080;-77
2021/06/21 01:04:08;;;;;;;10.68;3.25;;;;;;;;;;1916267;56;20099;-77
2021/06/21 01:06:34;;;;;;;7.38;2.70;;;;;;;;;;1906192;56;20096;-76
2021/06/21 01:09:00;;;;;;;8.75;2.75;;;;;;;;;;1905988;67;20144;-78
2021/06/21 01:11:39;;;;;;;5.00;2.10;;;;;;;;;;1907061;67;20139;-78
2021/06/21 01:14:40;;;;;;;9.30;2.70;;;;;;;;;;1904759;67;20099;-79
2021/06/21 01:17:36;;;;;;;4.83;2.23;;;;;;;;;;1902783;67;20137;-77
2021/06/21 01:20:24;;;;;;;5.50;2.13;;;;;;;;;;1906912;67;20106;-78
2021/06/21 01:23:14;;;;;;;4.13;2.35;;;;;;;;;;1908016;67;20088;-78
2021/06/21 01:25:58;;;;;;;5.90;1.98;;;;;;;;;;1907182;67;20172;-77
2021/06/21 01:28:33;;;;;;;5.85;1.92;;;;;;;;;;1904882;67;20517;-80
2021/06/21 01:31:07;;;;;;;5.60;2.03;;;;;;;;;;1906488;67;20092;-79
2021/06/21 01:33:34;;;;;;;5.00;1.75;;;;;;;;;;1908088;67;20103;-77
2021/06/21 01:36:02;;;;;;;6.53;1.90;;;;;;;;;;1904326;67;20141;-77
2021/06/21 01:38:34;;;;;;;4.68;1.90;;;;;;;;;;1903988;67;20641;-78
2021/06/21 01:41:08;;;;;;;5.57;2.00;;;;;;;;;;1904005;67;20095;-77
2021/06/21 01:43:39;;;;;;;6.93;1.80;;;;;;;;;;1907521;67;20118;-77
2021/06/21 01:46:06;;;;;;;8.02;1.70;;;;;;;;;;1907835;67;20092;-76
2021/06/21 01:48:35;;;;;;;9.57;1.58;;;;;;;;;;1902212;67;20092;-77
2021/06/21 01:51:02;;;;;;;7.38;1.73;;;;;;;;;;1903017;67;20129;-77
2021/06/21 01:53:32;;;;;;;7.55;2.15;;;;;;;;;;1906770;67;20205;-77
2021/06/21 01:56:22;;;;;;;10.70;2.08;;;;;;;;;;1908061;67;20077;-78
2021/06/21 01:58:52;;;;;;;5.40;1.48;;;;;;;;;;1905908;67;20088;-77
2021/06/21 02:01:19;;;;;;;4.70;1.73;;;;;;;;;;1903975;67;20189;-77
2021/06/21 02:03:53;;;;;;;3.70;1.40;;;;;;;;;;1906762;67;20087;-77
2021/06/21 02:06:20;;;;;;;4.72;1.40;;;;;;;;;;1903978;67;20100;-77
2021/06/21 02:08:48;;;;;;;7.05;1.55;;;;;;;;;;1903721;67;20142;-77
2021/06/21 02:11:15;;;;;;;6.18;2.13;;;;;;;;;;1903544;67;20085;-76
2021/06/21 02:13:41;;;;;;;7.03;1.27;;;;;;;;;;1901648;67;20521;-78
2021/06/21 02:16:08;;;;;;;7.18;1.70;;;;;;;;;;1905700;67;20161;-77
2021/06/21 02:18:35;;;;;;;5.80;1.88;;;;;;;;;;1903387;67;20092;-77
2021/06/21 02:21:02;;;;;;;4.97;1.58;;;;;;;;;;1903130;67;20087;-76
2021/06/21 02:23:28;;;;;;;4.13;1.58;;;;;;;;;;1901555;67;20083;-79
2021/06/21 02:25:57;;;;;;;7.95;1.75;;;;;;;;;;1903419;67;20122;-78
2021/06/21 02:28:24;;;;;;;4.45;1.60;;;;;;;;;;1906539;67;20631;-77
2021/06/21 02:30:52;;;;;;;7.20;1.65;;;;;;;;;;1904377;67;20166;-78
2021/06/21 02:33:18;;;;;;;5.97;1.80;;;;;;;;;;1903189;67;20575;-77
2021/06/21 02:35:45;;;;;;;11.20;1.98;;;;;;;;;;1904680;67;20092;-78
2021/06/21 02:38:11;;;;;;;4.70;1.30;;;;;;;;;;1904829;67;20095;-76
2021/06/21 02:40:37;;;;;;;9.27;1.90;;;;;;;;;;1904240;67;20135;-76
2021/06/21 02:43:04;;;;;;;3.08;1.15;;;;;;;;;;1905624;67;20095;-76
2021/06/21 02:45:30;;;;;;;6.03;1.40;;;;;;;;;;1904445;67;20111;-77
2021/06/21 02:47:56;;;;;;;6.25;1.58;;;;;;;;;;1904627;67;20091;-77
2021/06/21 02:50:23;;;;;;;6.93;1.42;;;;;;;;;;1908317;67;20092;-77
2021/06/21 02:53:02;;;;;;;6.28;1.83;;;;;;;;;;1901588;67;20099;-79
2021/06/21 02:55:56;;;;;;;6.32;1.60;;;;;;;;;;1907156;67;20088;-76
2021/06/21 02:58:34;;;;;;;9.48;1.58;;;;;;;;;;1904028;67;20102;-76
2021/06/21 03:01:04;;;;;;;8.05;1.70;;;;;;;;;;1907172;67;20087;-76
2021/06/21 03:03:42;;;;;;;5.30;1.33;;;;;;;;;;1905862;67;20090;-72
2021/06/21 03:06:08;;;;;;;7.07;1.98;;;;;;;;;;1905753;67;20084;-73
2021/06/21 03:08:36;;;;;;;5.68;1.42;;;;;;;;;;1900585;67;20096;-71
2021/06/21 03:11:03;;;;;;;6.35;1.40;;;;;;;;;;1905635;67;20092;-72
2021/06/21 03:13:29;;;;;;;7.63;1.40;;;;;;;;;;1904327;67;20077;-72
2021/06/21 03:15:57;;;;;;;8.00;1.65;;;;;;;;;;1903697;67;20182;-73
2021/06/21 03:18:24;;;;;;;7.45;1.30;;;;;;;;;;1901136;67;20088;-72
2021/06/21 03:20:57;;;;;;;8.38;1.50;;;;;;;;;;1900929;67;20088;-72
2021/06/21 03:23:25;;;;;;;3.22;1.10;;;;;;;;;;1903691;67;20136;-73
2021/06/21 03:25:53;;;;;;;10.35;1.42;;;;;;;;;;1903416;67;20107;-73
2021/06/21 03:28:19;;;;;;;6.45;1.25;;;;;;;;;;1903448;67;20095;-72
2021/06/21 03:30:49;;;;;;;2.70;1.20;;;;;;;;;;1903146;59;20157;-72
2021/06/21 03:33:16;;;;;;;5.75;1.40;;;;;;;;;;1907260;67;20084;-78
2021/06/21 03:35:44;;;;;;;9.75;1.40;;;;;;;;;;1909402;67;20111;-77
2021/06/21 03:38:10;;;;;;;6.68;1.50;;;;;;;;;;1903822;67;20088;-78
2021/06/21 03:40:35;;;;;;;6.88;1.30;;;;;;;;;;1903622;67;20157;-77
2021/06/21 03:43:01;;;;;;;5.03;1.40;;;;;;;;;;1906821;67;20417;-78
2021/06/21 03:45:27;;;;;;;5.65;1.13;;;;;;;;;;1903892;67;20128;-77
2021/06/21 03:47:52;;;;;;;3.83;1.10;;;;;;;;;;1908008;67;20196;-78
2021/06/21 03:50:18;;;;;;;5.97;1.42;;;;;;;;;;1902999;67;20103;-78
2021/06/21 03:52:46;;;;;;;6.18;1.23;;;;;;;;;;1902488;67;20096;-76
2021/06/21 03:55:12;;;;;;;7.78;1.10;;;;;;;;;;1906100;67;20092;-77
2021/06/21 03:57:44;;;;;;;6.95;1.45;;;;;;;;;;1903233;67;20100;-77
2021/06/21 04:00:16;;;;;;;4.50;1.13;;;;;;;;;;1906997;67;20080;-78
2021/06/21 04:02:43;;;;;;;11.27;1.00;;;;;;;;;;1903157;67;20166;-76
2021/06/21 04:05:09;;;;;;;5.35;0.88;;;;;;;;;;1904457;67;20084;-77
2021/06/21 04:07:35;;;;;;;11.68;1.15;;;;;;;;;;1900305;67;20084;-77
2021/06/21 04:10:02;;;;;;;4.30;0.95;;;;;;;;;;1901728;67;20137;-77
2021/06/21 04:12:30;;;;;;;5.03;0.90;;;;;;;;;;1903039;67;20092;-78
2021/06/21 04:14:56;;;;;;;6.15;1.20;;;;;;;;;;1907343;67;20087;-76
2021/06/21 04:17:21;;;;;;;9.73;1.20;;;;;;;;;;1899755;67;20100;-77
2021/06/21 04:19:47;;;;;;;6.72;1.50;;;;;;;;;;1903568;67;20088;-77
2021/06/21 04:22:13;;;;;;;7.25;1.50;;;;;;;;;;1902339;67;20472;-78
2021/06/21 04:24:39;;;;;;;7.30;0.98;;;;;;;;;;1905518;67;20137;-79
2021/06/21 04:27:05;;;;;;;9.60;1.20;;;;;;;;;;1900695;67;20077;-78
2021/06/21 04:29:30;;;;;;;8.55;0.90;;;;;;;;;;1900470;67;20158;-78
2021/06/21 04:31:56;;;;;;;6.90;0.95;;;;;;;;;;1903172;67;20085;-80
2021/06/21 04:34:24;;;;;;;5.80;0.82;;;;;;;;;;1910614;67;20084;-77
2021/06/21 04:36:53;;;;;;;4.10;0.80;;;;;;;;;;1909106;67;20088;-76
2021/06/21 04:39:19;;;;;;;8.57;0.90;;;;;;;;;;1902194;67;20110;-77
2021/06/21 04:41:44;;;;;;;7.70;1.10;;;;;;;;;;1903864;67;20080;-77
2021/06/21 04:44:10;;;;;;;8.18;0.98;;;;;;;;;;1899071;67;20088;-76
2021/06/21 04:46:37;;;;;;;5.32;0.80;;;;;;;;;;1903641;67;20588;-76
2021/06/21 04:49:04;;;;;;;6.40;1.00;;;;;;;;;;1903564;67;20488;-79
2021/06/21 04:51:32;;;;;;;9.55;1.05;;;;;;;;;;1903299;67;20560;-79
2021/06/21 04:53:58;;;;;;;9.68;0.98;;;;;;;;;;1902069;67;20092;-80
2021/06/21 04:56:23;;;;;;;4.55;0.90;;;;;;;;;;1906463;67;20106;-78
2021/06/21 04:58:51;;;;;;;10.18;1.00;;;;;;;;;;1904848;67;20084;-80
2021/06/21 05:01:16;;;;;;;8.90;1.17;;;;;;;;;;1906365;67;20123;-79
2021/06/21 05:03:50;;;;;;;11.40;1.30;;;;;;;;;;1907240;67;20096;-79
2021/06/21 05:06:16;;;;;;;7.18;1.23;;;;;;;;;;1905229;67;20169;-78
2021/06/21 05:08:42;;;;;;;6.75;1.17;;;;;;;;;;1903433;67;20565;-79
2021/06/21 05:11:07;;;;;;;8.88;0.77;;;;;;;;;;1900088;67;20080;-80
2021/06/21 05:13:33;;;;;;;8.23;0.82;;;;;;;;;;1900239;67;20100;-80
2021/06/21 05:15:58;;;;;;;9.18;1.02;;;;;;;;;;1902073;67;20084;-78
2021/06/21 05:18:24;;;;;;;5.82;0.90;;;;;;;;;;1903188;67;20103;-78
2021/06/21 05:20:50;;;;;;;7.45;1.00;;;;;;;;;;1897802;67;20115;-78
2021/06/21 05:23:15;;;;;;;6.55;0.60;;;;;;;;;;1902032;67;20568;-79
2021/06/21 05:25:41;;;;;;;6.43;0.73;;;;;;;;;;1902374;67;20146;-79
2021/06/21 05:28:06;;;;;;;5.38;0.82;;;;;;;;;;1902794;67;20138;-79
2021/06/21 05:30:32;;;;;;;12.52;1.67;;;;;;;;;;1902946;67;20488;-78
2021/06/21 05:32:58;;;;;;;8.10;0.90;;;;;;;;;;1903722;67;20096;-80
2021/06/21 05:35:24;;;;;;;4.25;1.13;;;;;;;;;;1903322;67;20499;-79
2021/06/21 05:37:51;;;;;;;7.68;1.00;;;;;;;;;;1905327;67;20103;-77
2021/06/21 05:40:18;;;;;;;4.85;1.13;;;;;;;;;;1902693;67;20138;-79
2021/06/21 05:42:44;;;;;;;10.77;1.27;;;;;;;;;;1905571;67;20088;-78
2021/06/21 05:45:10;;;;;;;5.55;1.10;;;;;;;;;;1906833;67;20306;-78
2021/06/21 05:47:37;;;;;;;11.80;2.05;;;;;;;;;;1900795;67;20081;-77
2021/06/21 05:50:03;;;;;;;7.50;1.10;;;;;;;;;;1904361;67;20507;-79
2021/06/21 05:52:29;;;;;;;7.22;0.98;;;;;;;;;;1901201;67;20494;-77
2021/06/21 05:54:59;;;;;;;7.22;1.02;;;;;;;;;;1902716;67;20091;-80
2021/06/21 05:57:29;;;;;;;7.38;1.20;;;;;;;;;;1904748;67;20084;-78
2021/06/21 05:59:55;;;;;;;13.82;1.25;;;;;;;;;;1901103;67;20088;-77
2021/06/21 06:02:21;;;;;;;8.80;1.50;;;;;;;;;;1900608;67;20099;-79
2021/06/21 06:04:48;;;;;;;7.10;1.20;;;;;;;;;;1904692;67;20099;-79
2021/06/21 06:07:14;;;;;;;10.25;1.55;;;;;;;;;;1906556;67;20099;-79
2021/06/21 06:09:40;;;;;;;5.05;1.60;;;;;;;;;;1898934;67;20084;-81
2021/06/21 06:12:06;;;;;;;10.40;1.80;;;;;;;;;;1903999;59;20092;-78
2021/06/21 06:14:32;;;;;;;6.25;1.15;;;;;;;;;;1907471;67;20524;-79
2021/06/21 06:16:58;;;;;;;7.05;1.00;;;;;;;;;;1903068;67;20509;-77
2021/06/21 06:19:24;;;;;;;3.83;1.30;;;;;;;;;;1904472;67;20800;-78
2021/06/21 06:21:50;;;;;;;5.40;1.10;;;;;;;;;;1904960;67;20563;-77
2021/06/21 06:24:16;;;;;;;5.05;1.30;;;;;;;;;;1903316;67;20104;-79
2021/06/21 06:26:43;;;;;;;10.32;1.20;;;;;;;;;;1901896;67;20100;-79
2021/06/21 06:29:18;;;;;;;5.78;1.35;;;;;;;;;;1899432;67;20103;-79
2021/06/21 06:31:47;;;;;;;4.15;1.85;;;;;;;;;;1903644;67;20564;-79
2021/06/21 06:34:14;;;;;;;9.10;1.73;;;;;;;;;;1903392;67;20095;-78
2021/06/21 06:36:39;;;;;;;8.70;1.70;;;;;;;;;;1904107;67;20080;-78
2021/06/21 06:39:06;;;;;;;8.90;1.58;;;;;;;;;;1901408;67;20157;-77
2021/06/21 06:41:31;;;;;;;12.63;1.77;;;;;;;;;;1905257;67;20092;-77
2021/06/21 06:43:57;;;;;;;4.93;1.80;;;;;;;;;;1903702;67;20159;-79
2021/06/21 06:46:23;;;;;;;6.03;1.85;;;;;;;;;;1907831;67;20165;-76
2021/06/21 06:48:49;;;;;;;8.70;2.30;;;;;;;;;;1904229;67;20464;-80
2021/06/21 06:51:15;;;;;;;9.55;1.88;;;;;;;;;;1901574;67;20099;-77
2021/06/21 06:53:46;;;;;;;7.68;1.80;;;;;;;;;;1901314;67;20141;-77
2021/06/21 06:58:56;;;;;;;9.43;2.10;;;;;;;;;;1904068;67;20397;-80
2021/06/21 07:01:24;;;;;;;13.32;2.35;;;;;;;;;;1902254;67;20096;-78
2021/06/21 07:03:50;;;;;;;4.97;1.95;;;;;;;;;;1904026;67;20104;-79
2021/06/21 07:06:17;;;;;;;7.03;1.92;;;;;;;;;;1902601;67;20080;-79
2021/06/21 07:08:44;;;;;;;11.88;2.05;;;;;;;;;;1900986;67;20103;-81
2021/06/21 07:11:11;;;;;;;12.63;2.33;;;;;;;;;;1903480;67;20092;-79
2021/06/21 07:13:37;;;;;;;9.20;2.08;;;;;;;;;;1904095;67;20095;-77
2021/06/21 07:16:03;;;;;;;10.32;2.30;;;;;;;;;;1901331;67;20088;-76
2021/06/21 07:18:29;;;;;;;7.50;2.17;;;;;;;;;;1903601;67;20140;-76
2021/06/21 07:20:55;;;;;;;12.20;2.45;;;;;;;;;;1901312;67;20082;-77
2021/06/21 07:23:21;;;;;;;9.02;2.55;;;;;;;;;;1899674;75;20679;-78
2021/06/21 07:25:46;;;;;;;7.18;2.53;;;;;;;;;;1901253;67;20089;-78
2021/06/21 07:28:15;;;;;;;7.55;2.25;;;;;;;;;;1903716;67;20096;-78
2021/06/21 07:30:41;;;;;;;8.88;2.28;;;;;;;;;;1904160;67;20088;-79
2021/06/21 07:33:07;;;;;;;7.05;2.03;;;;;;;;;;1903382;67;20506;-79
2021/06/21 07:35:32;;;;;;;5.40;2.33;;;;;;;;;;1901813;75;20119;-79
2021/06/21 07:38:01;;;;;;;10.02;2.40;;;;;;;;;;1903793;67;20091;-78
2021/06/21 07:40:27;;;;;;;13.65;2.50;;;;;;;;;;1901201;67;20526;-76
2021/06/21 07:42:53;;;;;;;9.15;2.53;;;;;;;;;;1903538;67;20099;-76
2021/06/21 07:45:18;;;;;;;6.88;2.33;;;;;;;;;;1898943;67;20084;-76
2021/06/21 07:47:44;;;;;;;8.80;3.38;;;;;;;;;;1907607;67;20592;-76
2021/06/21 07:50:10;;;;;;;5.35;2.17;;;;;;;;;;1904039;67;20226;-77
2021/06/21 07:52:54;;;;;;;7.80;2.58;;;;;;;;;;1901539;67;20088;-77
2021/06/21 07:55:19;;;;;;;7.55;2.80;;;;;;;;;;1904843;67;20084;-76
2021/06/21 07:57:45;;;;;;;10.35;2.60;;;;;;;;;;1904194;67;20534;-76
2021/06/21 08:00:11;;;;;;;7.05;2.53;;;;;;;;;;1901455;67;20076;-77
2021/06/21 08:02:37;;;;;;;9.27;2.90;;;;;;;;;;1903824;67;20509;-76
2021/06/21 08:05:03;;;;;;;9.73;2.47;;;;;;;;;;1902344;67;20095;-75
2021/06/21 08:07:29;;;;;;;14.82;3.00;;;;;;;;;;1902136;67;20092;-78
2021/06/21 08:09:55;;;;;;;7.93;2.65;;;;;;;;;;1899479;68;20102;-76
2021/06/21 08:12:20;;;;;;;8.13;2.72;;;;;;;;;;1907260;75;20096;-77
2021/06/21 08:14:46;;;;;;;15.40;2.53;;;;;;;;;;1905800;67;20398;-73
2021/06/21 08:17:12;;;;;;;4.95;2.50;;;;;;;;;;1900667;67;20092;-72
2021/06/21 08:19:37;;;;;;;13.98;2.80;;;;;;;;;;1900837;67;20296;-73
2021/06/21 08:22:04;;;;;;;10.30;2.95;;;;;;;;;;1901131;67;20088;-73
2021/06/21 08:24:29;;;;;;;10.93;3.20;;;;;;;;;;1903233;67;20144;-73
2021/06/21 08:26:59;;;;;;;8.50;2.75;;;;;;;;;;1905848;75;20440;-75
2021/06/21 08:29:25;;;;;;;8.02;2.38;;;;;;;;;;1901259;75;20549;-73
2021/06/21 08:31:51;;;;;;;9.68;2.60;;;;;;;;;;1900897;67;20085;-72
2021/06/21 08:34:16;;;;;;;6.88;2.67;;;;;;;;;;1900761;67;20092;-73
2021/06/21 08:36:42;;;;;;;9.38;2.80;;;;;;;;;;1900998;67;20115;-73
2021/06/21 08:39:07;;;;;;;15.80;3.30;;;;;;;;;;1901373;67;20140;-72
2021/06/21 08:41:33;;;;;;;15.98;4.57;;;;;;;;;;1900568;67;20148;-72
2021/06/21 08:44:00;;;;;;;7.45;2.95;;;;;;;;;;1900834;67;20729;-77
2021/06/21 08:46:26;;;;;;;6.10;2.65;;;;;;;;;;1905399;67;20379;-76
2021/06/21 08:48:55;;;;;;;11.60;3.25;;;;;;;;;;1900798;67;20580;-77
2021/06/21 08:51:22;;;;;;;4.15;2.50;;;;;;;;;;1906986;67;20111;-77
2021/06/21 08:53:48;;;;;;;17.02;3.20;;;;;;;;;;1901535;67;20087;-78
2021/06/21 08:56:16;;;;;;;11.05;2.70;;;;;;;;;;1904057;67;20161;-77
2021/06/21 08:58:42;;;;;;;5.63;3.13;;;;;;;;;;1903214;67;20185;-77
2021/06/21 09:01:10;;;;;;;8.18;2.60;;;;;;;;;;1904233;67;20126;-77
2021/06/21 09:03:36;;;;;;;8.63;2.60;;;;;;;;;;1899700;67;20127;-76
2021/06/21 09:06:03;;;;;;;9.52;2.63;;;;;;;;;;1904659;67;20155;-76
2021/06/21 09:08:29;;;;;;;11.18;3.03;;;;;;;;;;1904187;67;20104;-79
2021/06/21 09:10:55;;;;;;;8.85;3.30;;;;;;;;;;1905407;67;20095;-76
2021/06/21 09:13:22;;;;;;;7.05;3.13;;;;;;;;;;1903359;67;20398;-77
2021/06/21 09:15:56;;;;;;;14.73;3.67;;;;;;;;;;1901051;67;20104;-76
2021/06/21 09:18:36;;;;;;;7.47;3.03;;;;;;;;;;1902034;67;20103;-76
2021/06/21 09:21:23;;;;;;;8.48;3.40;;;;;;;;;;1903469;67;20096;-77
2021/06/21 09:23:50;;;;;;;9.65;2.88;;;;;;;;;;1901992;67;20088;-76
2021/06/21 09:26:22;;;;;;;9.52;3.00;;;;;;;;;;1904097;67;20090;-76
2021/06/21 09:28:48;;;;;;;10.30;2.67;;;;;;;;;;1902856;67;20138;-76
2021/06/21 09:31:14;;;;;;;6.40;2.83;;;;;;;;;;1903806;67;20096;-77
2021/06/21 09:33:40;;;;;;;11.23;3.30;;;;;;;;;;1902489;67;20100;-77
2021/06/21 09:36:06;;;;;;;10.85;3.40;;;;;;;;;;1900674;67;20127;-76
2021/06/21 09:38:32;;;;;;;10.65;3.05;;;;;;;;;;1903798;67;20713;-77
2021/06/21 09:40:59;;;;;;;8.25;2.45;;;;;;;;;;1902794;67;20088;-77
2021/06/21 09:43:32;;;;;;;5.85;2.75;;;;;;;;;;1903373;67;20396;-76
2021/06/21 09:46:09;;;;;;;8.55;3.00;;;;;;;;;;1904973;67;20128;-77
2021/06/21 09:48:42;;;;;;;7.13;2.65;;;;;;;;;;1905134;67;20596;-77
2021/06/21 09:51:33;;;;;;;5.70;2.35;;;;;;;;;;1904713;67;20092;-77
2021/06/21 09:54:11;;;;;;;7.85;2.60;;;;;;;;;;1903545;67;20092;-76
2021/06/21 09:56:45;;;;;;;7.40;2.30;;;;;;;;;;1901393;67;20510;-76
2021/06/21 09:59:37;;;;;;;5.88;2.55;;;;;;;;;;1902823;75;20089;-76
2021/06/21 10:02:04;;;;;;;5.68;2.58;;;;;;;;;;1898830;75;20176;-77
2021/06/21 10:04:30;;;;;;;7.18;2.70;;;;;;;;;;1901307;67;20602;-76
2021/06/21 10:06:56;;;;;;;9.35;3.50;;;;;;;;;;1897864;67;20094;-77
2021/06/21 10:09:21;;;;;;;11.65;2.95;;;;;;;;;;1898916;67;20210;-79
2021/06/21 10:11:47;;;;;;;8.05;3.00;;;;;;;;;;1895244;60;20092;-78
2021/06/21 10:14:19;;;;;;;7.47;2.58;;;;;;;;;;1898283;67;20144;-77
2021/06/21 10:16:47;;;;;;;7.60;2.47;;;;;;;;;;1894950;67;20093;-78
2021/06/21 10:19:23;;;;;;;9.40;3.92;;;;;;;;;;1896545;67;20115;-77
2021/06/21 10:21:56;;;;;;;7.07;2.15;;;;;;;;;;1896043;67;20088;-75
2021/06/21 10:24:30;;;;;;;6.18;2.30;;;;;;;;;;1898289;67;20586;-78
2021/06/21 10:26:55;;;;;;;7.30;2.78;;;;;;;;;;1895044;67;20081;-73
2021/06/21 10:29:22;;;;;;;188.05;11.48;;;;;;;;;;1901629;67;20502;-74
2021/06/21 10:31:50;;;;;;;10.73;2.88;;;;;;;;;;1899825;67;20589;-77
2021/06/21 10:34:18;;;;;;;5.25;1.98;;;;;;;;;;1901023;67;20085;-74
2021/06/21 10:36:47;;;;;;;5.22;2.00;;;;;;;;;;1901539;67;20552;-75
2021/06/21 10:39:20;;;;;;;6.88;2.05;;;;;;;;;;1899277;67;20186;-75
2021/06/21 10:42:36;;;;;;;5.10;2.50;;;;;;;;;;1904079;67;20154;-74
2021/06/21 10:45:04;;;;;;;6.22;2.67;;;;;;;;;;1888547;68;20087;-75
2021/06/21 10:47:39;;;;;;;12.75;2.67;;;;;;;;;;1891448;68;20093;-75
2021/06/21 10:50:17;;;;;;;8.60;2.63;;;;;;;;;;1889008;68;20099;-75
2021/06/21 10:52:47;;;;;;;7.68;2.60;;;;;;;;;;1889928;68;20094;-75
2021/06/21 10:55:21;;;;;;;10.45;3.00;;;;;;;;;;1888423;68;20091;-75
2021/06/21 10:57:55;;;;;;;6.60;2.78;;;;;;;;;;1889283;68;20082;-75
2021/06/21 11:00:29;;;;;;;8.95;3.10;;;;;;;;;;1889199;60;20101;-74
2021/06/21 11:02:54;;;;;;;9.02;2.50;;;;;;;;;;1888428;68;20083;-75
2021/06/21 11:05:42;;;;;;;12.05;4.70;;;;;;;;;;1889868;68;20102;-75
2021/06/21 11:08:18;;;;;;;9.02;2.70;;;;;;;;;;1889902;68;20110;-75
2021/06/21 11:10:46;;;;;;;5.88;2.50;;;;;;;;;;1889160;68;20094;-75
2021/06/21 11:13:35;;;;;;;7.05;2.60;;;;;;;;;;1886814;68;20105;-75
2021/06/21 11:16:19;;;;;;;4.80;3.28;;;;;;;;;;1889137;68;20584;-75
2021/06/21 11:18:47;;;;;;;6.90;2.42;;;;;;;;;;1898632;67;20091;-75
2021/06/21 11:21:12;;;;;;;8.40;2.70;;;;;;;;;;1904060;67;20108;-75
2021/06/21 11:23:41;;;;;;;8.70;2.72;;;;;;;;;;1903544;67;20139;-76
2021/06/21 11:26:07;;;;;;;8.13;3.30;;;;;;;;;;1901551;67;20219;-74
2021/06/21 11:28:49;;;;;;;6.65;3.13;;;;;;;;;;1901478;67;20195;-74
2021/06/21 11:31:28;;;;;;;6.53;2.92;;;;;;;;;;1901561;67;20091;-75
2021/06/21 11:33:58;;;;;;;5.10;2.83;;;;;;;;;;1901796;67;20100;-75
2021/06/21 11:36:39;;;;;;;13.43;3.75;;;;;;;;;;1901436;67;20081;-74
2021/06/21 11:39:25;;;;;;;5.82;3.38;;;;;;;;;;1901791;67;20151;-75
2021/06/21 11:42:04;;;;;;;12.25;3.47;;;;;;;;;;1901834;67;20092;-75
2021/06/21 11:44:39;;;;;;;7.32;3.08;;;;;;;;;;1901551;67;20514;-75
2021/06/21 11:47:31;;;;;;;10.93;3.83;;;;;;;;;;1902419;75;20085;-75
2021/06/21 11:50:08;;;;;;;11.95;3.30;;;;;;;;;;1900008;67;20159;-77
2021/06/21 11:52:34;;;;;;;7.53;3.17;;;;;;;;;;1899801;67;20093;-74
2021/06/21 11:55:15;;;;;;;7.68;3.45;;;;;;;;;;1899286;67;20108;-74
2021/06/21 11:57:45;;;;;;;8.95;3.22;;;;;;;;;;1900969;75;20085;-73
2021/06/21 12:00:12;;;;;;;9.18;3.85;;;;;;;;;;1902410;67;20089;-76
2021/06/21 12:02:38;;;;;;;5.78;3.45;;;;;;;;;;1902010;67;20099;-75
2021/06/21 12:05:10;;;;;;;6.90;3.60;;;;;;;;;;1901533;67;20186;-75
2021/06/21 12:07:40;;;;;;;;;;;;;;;;;;1901842;67;20084;-76
2021/06/21 12:10:08;;;;;;;7.32;3.28;;;;;;;;;;1901164;67;19964;-75
2021/06/21 12:12:36;;;;;;;6.00;3.47;;;;;;;;;;1901532;67;20124;-75
2021/06/21 12:15:06;;;;;;;6.80;3.50;;;;;;;;;;1892959;75;20089;-74
2021/06/21 12:17:33;;;;;;;5.50;2.78;;;;;;;;;;1896941;67;20085;-75
2021/06/21 12:20:09;;;;;;;10.63;3.30;;;;;;;;;;1895473;68;20093;-75
2021/06/21 12:22:38;;;;;;;5.35;3.38;;;;;;;;;;1898203;67;20082;-75
2021/06/21 12:25:25;;;;;;;5.90;3.03;;;;;;;;;;1895206;67;20169;-75
2021/06/21 12:27:52;;;;;;;4.53;2.78;;;;;;;;;;1896271;67;20585;-75
2021/06/21 12:30:43;;;;;;;6.85;3.05;;;;;;;;;;1896371;67;20134;-74
2021/06/21 12:33:25;;;;;;;10.98;4.03;;;;;;;;;;1897312;67;20093;-76
2021/06/21 12:36:04;;;;;;;12.25;3.45;;;;;;;;;;1895290;67;20077;-75
2021/06/21 12:38:29;;;;;;;7.68;3.40;;;;;;;;;;1896475;67;20085;-74
2021/06/21 12:40:55;;;;;;;9.63;3.45;;;;;;;;;;1896129;75;20093;-74
2021/06/21 12:43:21;;;;;;;7.63;2.83;;;;;;;;;;1896193;67;20265;-74
2021/06/21 12:45:46;;;;;;;7.93;3.40;;;;;;;;;;1897565;67;20411;-75
2021/06/21 12:48:12;;;;;;;5.22;3.17;;;;;;;;;;1896257;67;20175;-76
2021/06/21 12:50:37;;;;;;;10.10;3.28;;;;;;;;;;1902631;67;20088;-74
2021/06/21 12:53:07;;;;;;;6.80;3.25;;;;;;;;;;1902816;67;20092;-74
2021/06/21 12:55:33;;;;;;;10.35;3.80;;;;;;;;;;1903164;67;20779;-74
2021/06/21 12:58:04;;;;;;;6.22;3.80;;;;;;;;;;1902507;67;20077;-73
2021/06/21 13:00:47;;;;;;;8.50;4.63;;;;;;;;;;1903438;67;20081;-74
2021/06/21 13:03:24;;;;;;;11.02;3.85;;;;;;;;;;1901982;67;20162;-75
2021/06/21 13:05:57;;;;;;;8.50;3.70;;;;;;;;;;1904278;67;20537;-76
2021/06/21 13:08:31;;;;;;;9.88;4.70;;;;;;;;;;1903918;67;20153;-75
2021/06/21 13:11:11;;;;;;;6.60;3.85;;;;;;;;;;1908688;67;20092;-75
2021/06/21 13:13:46;;;;;;;7.22;4.25;;;;;;;;;;1907024;67;20114;-75
2021/06/21 13:16:27;;;;;;;10.13;3.55;;;;;;;;;;1908173;59;20117;-74
2021/06/21 13:18:59;;;;;;;5.90;3.97;;;;;;;;;;1908148;67;20088;-74
2021/06/21 13:21:41;;;;;;;;;;;;;;;;;;1907092;67;20088;-73
2021/06/21 13:24:07;;;;;;;;;;;;;;;;;;1906040;67;19959;-73
2021/06/21 13:26:36;;;;;;;11.07;3.85;;;;;;;;;;1907073;75;19976;-74
2021/06/21 13:29:25;;;;;;;7.88;4.03;;;;;;;;;;1895725;67;20290;-73
2021/06/21 13:31:54;;;;;;;10.35;4.18;;;;;;;;;;1906978;67;20137;-73
2021/06/21 13:34:56;;;;;;;10.10;4.40;;;;;;;;;;1902230;67;20556;-74
2021/06/21 13:37:30;;;;;;;8.85;3.85;;;;;;;;;;1898540;75;20731;-74
2021/06/21 13:40:09;;;;;;;8.43;4.05;;;;;;;;;;1900244;67;20081;-74
2021/06/21 13:42:38;;;;;;;8.40;3.80;;;;;;;;;;1900064;68;20089;-75
2021/06/21 13:45:08;;;;;;;7.13;3.90;;;;;;;;;;1899147;67;20093;-74
2021/06/21 13:47:37;;;;;;;8.77;4.03;;;;;;;;;;1898564;75;20081;-75
2021/06/21 13:50:08;;;;;;;6.10;3.90;;;;;;;;;;1898581;67;20151;-75
2021/06/21 13:52:38;;;;;;;;;;;;;;;;;;1900744;75;20105;-74
2021/06/21 13:55:05;;;;;;;6.40;4.20;;;;;;;;;;1897233;67;19964;-76
2021/06/21 13:57:39;;;;;;;10.90;5.10;;;;;;;;;;1900241;67;20081;-73
2021/06/21 14:00:09;;;;;;;10.93;4.50;;;;;;;;;;1899963;67;20081;-74
2021/06/21 14:02:38;;;;;;;9.90;4.18;;;;;;;;;;1897386;75;20092;-76
2021/06/21 14:05:07;;;;;;;7.20;4.13;;;;;;;;;;1895956;67;20200;-75
2021/06/21 14:07:33;;;;;;;6.25;4.18;;;;;;;;;;1898022;67;20543;-75
2021/06/21 14:09:59;;;;;;;15.05;4.85;;;;;;;;;;1895572;67;20100;-73
2021/06/21 14:12:25;;;;;;;11.07;4.15;;;;;;;;;;1902790;75;20145;-73
2021/06/21 14:14:52;;;;;;;8.07;4.00;;;;;;;;;;1901709;67;20093;-75
2021/06/21 14:17:21;;;;;;;7.70;3.80;;;;;;;;;;1902872;67;20110;-74
2021/06/21 14:19:46;;;;;;;10.80;3.88;;;;;;;;;;1904740;67;20227;-75
2021/06/21 14:22:12;;;;;;;7.07;4.20;;;;;;;;;;1901431;67;20155;-74
2021/06/21 14:24:38;;;;;;;7.03;4.18;;;;;;;;;;1900091;67;20089;-73
2021/06/21 14:27:04;;;;;;;6.50;4.32;;;;;;;;;;1903414;67;20144;-74
2021/06/21 14:29:30;;;;;;;6.53;4.53;;;;;;;;;;1897829;67;20082;-74
2021/06/21 14:31:55;;;;;;;6.70;4.28;;;;;;;;;;1896722;67;20086;-74
2021/06/21 14:34:21;;;;;;;8.90;4.07;;;;;;;;;;1897042;67;20094;-73
2021/06/21 14:36:47;;;;;;;8.20;4.63;;;;;;;;;;1893025;68;20082;-75
2021/06/21 14:39:12;;;;;;;8.05;5.05;;;;;;;;;;1891654;68;20102;-75
2021/06/21 14:41:38;;;;;;;11.45;4.88;;;;;;;;;;1891530;68;20734;-75
2021/06/21 14:44:05;;;;;;;9.98;4.30;;;;;;;;;;1891573;67;20086;-74
2021/06/21 14:46:31;;;;;;;9.57;5.00;;;;;;;;;;1890210;68;20101;-74
2021/06/21 14:48:57;;;;;;;13.10;5.72;;;;;;;;;;1891259;68;20131;-75
2021/06/21 14:51:23;;;;;;;9.10;5.50;;;;;;;;;;1891082;68;20157;-75
2021/06/21 14:53:50;;;;;;;15.38;4.82;;;;;;;;;;1891469;68;20087;-71
2021/06/21 14:56:16;;;;;;;9.52;5.05;;;;;;;;;;1890688;67;20592;-71